createdAt,value
2023-01-17T00:02:09.196Z,93981.78
2023-01-17T00:05:09.828Z,93993.69
2023-01-17T00:07:57.554Z,93992.81
2023-01-17T00:10:28.066Z,93981.47
2023-01-17T00:12:58.546Z,93975.53
2023-01-17T00:15:28.542Z,93973.13
2023-01-17T00:17:57.714Z,93975.56
2023-01-17T00:20:45.288Z,93980.09
2023-01-17T00:23:34.136Z,93974.06
2023-01-17T00:26:05.424Z,93973.16
2023-01-17T00:28:34.551Z,93969.44
2023-01-17T00:31:02.257Z,93974.78
2023-01-17T00:33:29.923Z,93968.66
2023-01-17T00:35:59.162Z,93966.31
2023-01-17T00:38:30.205Z,93959.13
2023-01-17T00:41:05.913Z,93945.44
2023-01-17T00:43:51.770Z,93936.75
2023-01-17T00:46:37.665Z,93927.25
2023-01-17T00:49:23.524Z,93931.94
2023-01-17T00:52:09.517Z,93928.97
2023-01-17T00:54:56.247Z,93934.19
2023-01-17T00:57:42.262Z,93931.63
2023-01-17T01:00:29.197Z,93937.69
2023-01-17T01:03:15.274Z,93932.94
2023-01-17T01:06:01.225Z,93931.63
2023-01-17T01:08:48.566Z,93927.88
2023-01-17T01:11:37.828Z,93935.59
2023-01-17T01:14:25.078Z,93933.53
2023-01-17T01:17:10.998Z,93932.38
2023-01-17T01:19:56.631Z,93931.38
2023-01-17T01:22:42.408Z,93936.63
2023-01-17T01:25:28.486Z,93942.81
2023-01-17T01:28:23.702Z,93944.50
2023-01-17T01:31:09.683Z,93944.50
2023-01-17T01:33:37.943Z,93937.97
2023-01-17T01:36:08.686Z,93928.13
2023-01-17T01:38:37.479Z,93925.06
2023-01-17T01:41:06.223Z,93928.50
2023-01-17T01:43:45.235Z,93934.94
2023-01-17T01:46:17.133Z,93929.63
2023-01-17T01:48:51.073Z,93930.56
2023-01-17T01:51:23.585Z,93938.06
2023-01-17T01:53:55.710Z,93945.81
2023-01-17T01:56:25.090Z,93942.84
2023-01-17T01:58:55.537Z,93943.03
2023-01-17T02:01:24.013Z,93937.78
2023-01-17T02:03:52.426Z,93945.44
2023-01-17T02:06:31.498Z,93937.25
2023-01-17T02:09:04.371Z,93943.84
2023-01-17T02:11:33.740Z,93942.28
2023-01-17T02:14:03.568Z,93952.72
2023-01-17T02:16:47.845Z,93937.88
2023-01-17T02:19:43.855Z,93933.75
2023-01-17T02:22:47.172Z,93923.19
2023-01-17T02:25:43.403Z,93913.56
2023-01-17T02:28:28.927Z,93911.34
2023-01-17T02:31:04.071Z,93919.16
2023-01-17T02:33:38.405Z,93931.13
2023-01-17T02:36:15.743Z,93931.00
2023-01-17T02:38:52.737Z,93939.06
2023-01-17T02:41:25.254Z,93941.38
2023-01-17T02:43:54.958Z,93938.81
2023-01-17T02:46:24.621Z,93931.56
2023-01-17T02:48:53.173Z,93937.63
2023-01-17T02:51:54.790Z,93936.72
2023-01-17T02:54:49.216Z,93948.19
2023-01-17T02:57:36.642Z,93950.84
2023-01-17T03:00:09.411Z,93948.22
2023-01-17T03:02:48.342Z,93950.81
2023-01-17T03:05:24.272Z,93945.56
2023-01-17T03:07:53.885Z,93949.69
2023-01-17T03:10:23.135Z,93950.69
2023-01-17T03:12:53.242Z,93962.19
2023-01-17T03:15:21.522Z,93957.41
2023-01-17T03:17:57.376Z,93970.47
2023-01-17T03:20:25.555Z,93964.38
2023-01-17T03:22:53.794Z,93968.97
2023-01-17T03:25:21.880Z,93970.28
2023-01-17T03:27:50.128Z,93974.03
2023-01-17T03:30:20.480Z,93981.53
2023-01-17T03:32:48.468Z,93982.41
2023-01-17T03:35:18.788Z,93979.69
2023-01-17T03:37:46.825Z,93972.53
2023-01-17T03:40:15.477Z,93992.06
2023-01-17T03:42:43.966Z,93987.53
2023-01-17T03:45:30.269Z,93986.88
2023-01-17T03:47:58.595Z,93988.66
2023-01-17T03:50:27.994Z,93989.59
2023-01-17T03:52:56.605Z,93982.97
2023-01-17T03:55:25.110Z,93991.56
2023-01-17T03:57:53.528Z,93998.75
2023-01-17T04:00:22.592Z,93997.22
2023-01-17T04:02:50.863Z,93992.59
2023-01-17T04:05:19.288Z,93998.06
2023-01-17T04:07:48.798Z,93995.16
2023-01-17T04:10:17.358Z,93997.91
2023-01-17T04:12:46.006Z,94000.25
2023-01-17T04:15:14.164Z,93993.66
2023-01-17T04:17:43.081Z,94002.50
2023-01-17T04:20:18.471Z,94002.50
2023-01-17T04:22:48.194Z,94006.81
2023-01-17T04:25:16.443Z,94000.47
2023-01-17T04:27:44.655Z,93996.25
2023-01-17T04:30:13.731Z,94004.47
2023-01-17T04:32:42.004Z,94005.28
2023-01-17T04:35:10.981Z,94015.56
2023-01-17T04:37:39.306Z,94017.78
2023-01-17T04:40:10.447Z,94010.59
2023-01-17T04:42:38.901Z,94006.13
2023-01-17T04:45:08.922Z,94014.34
2023-01-17T04:47:37.545Z,94009.66
2023-01-17T04:50:06.187Z,94005.28
2023-01-17T04:52:34.543Z,94020.84
2023-01-17T04:55:02.728Z,94010.84
2023-01-17T04:57:32.587Z,94020.66
2023-01-17T05:00:01.052Z,94016.81
2023-01-17T05:02:29.746Z,94021.16
2023-01-17T05:04:58.043Z,94028.25
2023-01-17T05:07:26.181Z,94024.34
2023-01-17T05:09:54.235Z,94024.72
2023-01-17T05:12:22.546Z,94026.19
2023-01-17T05:14:52.212Z,94026.72
2023-01-17T05:17:21.309Z,94028.03
2023-01-17T05:19:49.924Z,94041.28
2023-01-17T05:22:18.740Z,94034.00
2023-01-17T05:24:48.527Z,94032.75
2023-01-17T05:27:17.393Z,94039.16
2023-01-17T05:29:45.456Z,94053.03
2023-01-17T05:32:15.054Z,94046.44
2023-01-17T05:34:43.483Z,94056.69
2023-01-17T05:37:11.921Z,94052.28
2023-01-17T05:39:40.371Z,94049.34
2023-01-17T05:42:08.545Z,94062.19
2023-01-17T05:44:36.792Z,94066.91
2023-01-17T05:47:04.778Z,94059.09
2023-01-17T05:49:34.869Z,94065.53
2023-01-17T05:52:06.303Z,94074.53
2023-01-17T05:54:34.588Z,94070.03
2023-01-17T05:57:02.832Z,94072.94
2023-01-17T05:59:37.059Z,94089.41
2023-01-17T06:02:05.881Z,94085.72
2023-01-17T06:04:35.850Z,94093.34
2023-01-17T06:07:04.319Z,94096.75
2023-01-17T06:09:32.675Z,94103.72
2023-01-17T06:12:01.622Z,94110.88
2023-01-17T06:14:30.142Z,94118.63
2023-01-17T06:16:58.973Z,94121.84
2023-01-17T06:19:27.258Z,94113.94
2023-01-17T06:21:57.217Z,94121.47
2023-01-17T06:24:25.538Z,94122.09
2023-01-17T06:26:53.603Z,94126.88
2023-01-17T06:29:21.871Z,94127.53
2023-01-17T06:31:50.768Z,94121.59
2023-01-17T06:34:19.211Z,94129.28
2023-01-17T06:36:47.889Z,94132.47
2023-01-17T06:39:17.749Z,94144.72
2023-01-17T06:41:45.968Z,94135.50
2023-01-17T06:44:14.392Z,94139.00
2023-01-17T06:46:43.434Z,94142.31
2023-01-17T06:49:11.728Z,94138.13
2023-01-17T06:51:41.748Z,94152.97
2023-01-17T06:54:11.612Z,94145.91
2023-01-17T06:56:41.818Z,94148.97
2023-01-17T06:59:10.981Z,94152.81
2023-01-17T07:01:39.999Z,94166.44
2023-01-17T07:04:08.937Z,94167.31
2023-01-17T07:06:37.797Z,94169.47
2023-01-17T07:09:06.638Z,94170.94
2023-01-17T07:11:35.133Z,94181.31
2023-01-17T07:14:05.709Z,94183.88
2023-01-17T07:16:35.546Z,94192.03
2023-01-17T07:19:04.275Z,94190.19
2023-01-17T07:21:32.670Z,94192.16
2023-01-17T07:24:00.990Z,94205.97
2023-01-17T07:26:29.624Z,94190.63
2023-01-17T07:28:58.233Z,94208.31
2023-01-17T07:31:28.060Z,94194.31
2023-01-17T07:33:56.393Z,94183.69
2023-01-17T07:36:24.687Z,94197.41
2023-01-17T07:38:53.301Z,94195.66
2023-01-17T07:41:21.744Z,94191.56
2023-01-17T07:43:50.313Z,94193.88
2023-01-17T07:46:19.300Z,94196.41
2023-01-17T07:48:49.666Z,94196.41
2023-01-17T07:51:18.500Z,94210.16
2023-01-17T07:53:47.410Z,94211.47
2023-01-17T07:56:15.947Z,94212.41
2023-01-17T07:58:44.320Z,94215.31
2023-01-17T08:01:14.261Z,94217.84
2023-01-17T08:04:10.607Z,94225.78
2023-01-17T08:06:44.514Z,94229.69
2023-01-17T08:15:09.363Z,94222.69
2023-01-17T08:17:38.148Z,94227.09
2023-01-17T08:20:08.775Z,94225.00
2023-01-17T08:22:37.475Z,94229.22
2023-01-17T08:25:06.626Z,94237.19
2023-01-17T08:27:36.249Z,94234.91
2023-01-17T08:30:05.686Z,94233.56
2023-01-17T08:32:34.759Z,94236.19
2023-01-17T08:35:03.349Z,94226.06
2023-01-17T08:37:33.618Z,94233.81
2023-01-17T08:40:02.249Z,94228.03
2023-01-17T08:42:30.769Z,94228.03
2023-01-17T08:44:59.515Z,94227.09
2023-01-17T08:47:28.100Z,94236.69
2023-01-17T08:49:56.370Z,94239.88
2023-01-17T08:52:26.826Z,94245.19
2023-01-17T08:54:57.261Z,94246.28
2023-01-17T08:57:26.321Z,94246.13
2023-01-17T08:59:54.603Z,94240.53
2023-01-17T09:02:24.368Z,94251.84
2023-01-17T09:04:53.826Z,94256.78
2023-01-17T09:07:24.487Z,94251.31
2023-01-17T09:09:52.839Z,94243.16
2023-01-17T09:12:23.514Z,94244.94
2023-01-17T09:14:51.740Z,94246.22
2023-01-17T09:17:20.557Z,94249.75
2023-01-17T09:19:49.452Z,94248.53
2023-01-17T09:22:18.664Z,94265.72
2023-01-17T09:24:47.764Z,94254.13
2023-01-17T09:27:16.920Z,94270.72
2023-01-17T09:29:47.047Z,94267.34
2023-01-17T09:32:17.604Z,94277.59
2023-01-17T09:34:47.758Z,94274.28
2023-01-17T09:37:16.583Z,94268.50
2023-01-17T09:39:44.744Z,94276.97
2023-01-17T09:42:22.133Z,94276.59
2023-01-17T09:44:53.809Z,94268.72
2023-01-17T09:47:34.315Z,94280.28
2023-01-17T09:50:19.497Z,94272.34
2023-01-17T09:52:48.484Z,94275.63
2023-01-17T09:55:18.932Z,94275.66
2023-01-17T09:57:58.012Z,94285.84
2023-01-17T10:00:44.259Z,94287.53
2023-01-17T10:03:42.684Z,94287.59
2023-01-17T10:06:30.866Z,94296.03
2023-01-17T10:09:25.350Z,94286.88
2023-01-17T10:12:08.935Z,94294.88
2023-01-17T10:14:53.958Z,94285.53
2023-01-17T10:17:36.540Z,94279.91
2023-01-17T10:20:16.028Z,94286.81
2023-01-17T10:23:01.685Z,94275.75
2023-01-17T10:25:42.977Z,94284.97
2023-01-17T10:28:17.804Z,94290.78
2023-01-17T10:30:50.271Z,94278.69
2023-01-17T10:33:23.358Z,94282.59
2023-01-17T10:35:57.112Z,94295.59
2023-01-17T10:38:32.197Z,94289.69
2023-01-17T10:41:08.379Z,94283.28
2023-01-17T10:43:45.471Z,94288.16
2023-01-17T10:46:20.235Z,94290.84
2023-01-17T10:48:53.767Z,94299.47
2023-01-17T10:51:49.934Z,94312.84
2023-01-17T10:54:38.795Z,94310.44
2023-01-17T10:57:15.231Z,94315.81
2023-01-17T10:59:44.260Z,94316.44
2023-01-17T11:02:21.488Z,94321.16
2023-01-17T11:04:54.693Z,94312.88
2023-01-17T11:07:25.936Z,94323.69
2023-01-17T11:09:56.437Z,94314.56
2023-01-17T11:12:30.503Z,94321.47
2023-01-17T11:15:06.722Z,94330.66
2023-01-17T11:17:37.519Z,94335.38
2023-01-17T11:20:20.348Z,94336.81
2023-01-17T11:23:04.368Z,94322.59
2023-01-17T11:25:35.119Z,94316.56
2023-01-17T11:28:06.870Z,94318.13
2023-01-17T11:30:36.015Z,94303.84
2023-01-17T11:33:08.981Z,94303.28
2023-01-17T11:35:45.401Z,94310.06
2023-01-17T11:38:19.936Z,94293.72
2023-01-17T11:40:50.042Z,94299.06
2023-01-17T11:43:22.090Z,94300.13
2023-01-17T11:46:03.465Z,94296.94
2023-01-17T11:48:40.437Z,94296.19
2023-01-17T11:51:21.915Z,94302.63
2023-01-17T11:53:50.492Z,94302.00
2023-01-17T11:56:23.726Z,94307.38
2023-01-17T11:58:53.137Z,94303.53
2023-01-17T12:01:38.254Z,94297.03
2023-01-17T12:04:25.707Z,94283.19
2023-01-17T12:07:11.359Z,94288.31
2023-01-17T12:09:47.671Z,94296.81
2023-01-17T12:12:44.462Z,94290.38
2023-01-17T12:15:31.808Z,94289.28
2023-01-17T12:18:22.240Z,94288.16
2023-01-17T12:21:10.994Z,94290.63
2023-01-17T12:23:59.099Z,94292.47
2023-01-17T12:26:36.410Z,94297.97
2023-01-17T12:29:31.439Z,94282.06
2023-01-17T12:32:11.548Z,94289.22
2023-01-17T12:34:47.230Z,94303.53
2023-01-17T12:37:23.033Z,94310.22
2023-01-17T12:39:59.806Z,94306.97
2023-01-17T12:42:33.003Z,94300.16
2023-01-17T12:45:07.527Z,94312.78
2023-01-17T12:47:41.782Z,94301.69
2023-01-17T12:50:22.714Z,94304.59
2023-01-17T12:53:00.009Z,94294.94
2023-01-17T12:55:37.558Z,94306.50
2023-01-17T12:58:12.575Z,94297.31
2023-01-17T13:00:40.999Z,94294.84
2023-01-17T13:03:20.442Z,94305.59
2023-01-17T13:05:48.945Z,94307.50
2023-01-17T13:08:25.200Z,94305.44
2023-01-17T13:10:58.485Z,94315.78
2023-01-17T13:13:28.609Z,94324.81
2023-01-17T13:16:02.146Z,94331.56
2023-01-17T13:18:33.353Z,94335.06
2023-01-17T13:21:15.891Z,94351.41
2023-01-17T13:24:06.174Z,94350.78
2023-01-17T13:26:49.977Z,94351.50
2023-01-17T13:29:28.248Z,94357.72
2023-01-17T13:32:07.230Z,94355.00
2023-01-17T13:34:50.090Z,94363.16
2023-01-17T13:37:50.761Z,94363.16
2023-01-17T13:40:44.256Z,94369.63
2023-01-17T13:43:19.978Z,94365.75
2023-01-17T13:45:54.650Z,94358.91
2023-01-17T13:48:28.660Z,94353.66
2023-01-17T13:50:58.497Z,94362.06
2023-01-17T13:53:48.424Z,94362.78
2023-01-17T13:56:31.331Z,94357.28
2023-01-17T13:59:28.585Z,94354.75
2023-01-17T14:01:57.886Z,94354.69
2023-01-17T14:05:04.984Z,94357.50
2023-01-17T14:07:36.037Z,94371.81
2023-01-17T14:10:25.485Z,94370.88
2023-01-17T14:12:53.823Z,94381.50
2023-01-17T14:15:25.663Z,94384.84
2023-01-17T14:18:00.136Z,94391.94
2023-01-17T14:21:05.072Z,94397.50
2023-01-17T14:23:50.259Z,94398.75
2023-01-17T14:26:33.478Z,94407.56
2023-01-17T14:29:35.879Z,94409.69
2023-01-17T14:32:11.172Z,94415.00
2023-01-17T14:34:39.767Z,94414.56
2023-01-17T14:37:18.542Z,94419.25
2023-01-17T14:39:48.916Z,94411.25
2023-01-17T14:42:20.268Z,94420.34
2023-01-17T14:44:50.894Z,94417.03
2023-01-17T14:47:22.882Z,94432.63
2023-01-17T14:50:11.217Z,94438.34
2023-01-17T14:52:40.097Z,94444.66
2023-01-17T14:55:18.021Z,94437.81
2023-01-17T14:57:56.398Z,94436.06
2023-01-17T15:00:29.355Z,94443.53
2023-01-17T15:03:02.357Z,94445.84
2023-01-17T15:05:31.527Z,94446.41
2023-01-17T15:08:00.682Z,94444.97
2023-01-17T15:10:33.567Z,94449.63
2023-01-17T15:13:10.261Z,94444.88
2023-01-17T15:15:42.063Z,94442.50
2023-01-17T15:18:20.117Z,94439.09
2023-01-17T15:21:08.577Z,94429.50
2023-01-17T15:23:41.630Z,94435.34
2023-01-17T15:26:16.357Z,94425.66
2023-01-17T15:28:46.102Z,94432.06
2023-01-17T15:31:17.004Z,94435.06
2023-01-17T15:33:49.470Z,94433.06
2023-01-17T15:36:27.834Z,94420.25
2023-01-17T15:38:59.745Z,94425.00
2023-01-17T15:41:32.428Z,94420.50
2023-01-17T15:44:01.253Z,94415.31
2023-01-17T15:46:34.497Z,94401.13
2023-01-17T15:49:24.524Z,94411.41
2023-01-17T15:51:55.327Z,94418.88
2023-01-17T15:54:26.338Z,94426.78
2023-01-17T15:57:06.707Z,94435.31
2023-01-17T15:59:45.543Z,94447.56
2023-01-17T16:02:37.883Z,94435.34
2023-01-17T16:05:42.054Z,94438.88
2023-01-17T16:08:31.960Z,94433.78
2023-01-17T16:11:03.487Z,94437.31
2023-01-17T16:13:33.517Z,94445.81
2023-01-17T16:16:18.607Z,94437.16
2023-01-17T16:18:48.222Z,94434.84
2023-01-17T16:21:26.893Z,94432.22
2023-01-17T16:23:56.223Z,94426.22
2023-01-17T16:26:25.341Z,94424.41
2023-01-17T16:28:53.976Z,94428.47
2023-01-17T16:31:23.169Z,94427.38
2023-01-17T16:33:52.108Z,94424.91
2023-01-17T16:36:23.205Z,94417.41
2023-01-17T16:38:53.582Z,94420.31
2023-01-17T16:41:22.204Z,94419.06
2023-01-17T16:44:02.060Z,94418.56
2023-01-17T16:46:31.035Z,94418.81
2023-01-17T16:49:01.426Z,94429.13
2023-01-17T16:51:29.810Z,94427.47
2023-01-17T16:53:59.670Z,94430.03
2023-01-17T16:56:27.985Z,94421.09
2023-01-17T16:58:56.867Z,94423.28
2023-01-17T17:01:25.733Z,94423.47
2023-01-17T17:03:54.646Z,94421.47
2023-01-17T17:06:23.347Z,94412.63
2023-01-17T17:08:51.563Z,94408.75
2023-01-17T17:11:23.932Z,94407.88
2023-01-17T17:13:53.208Z,94404.06
2023-01-17T17:16:26.642Z,94401.75
2023-01-17T17:18:57.463Z,94398.16
2023-01-17T17:21:26.617Z,94405.25
2023-01-17T17:23:58.168Z,94396.06
2023-01-17T17:26:31.409Z,94396.34
2023-01-17T17:28:59.851Z,94394.97
2023-01-17T17:31:28.704Z,94404.47
2023-01-17T17:34:01.318Z,94405.69
2023-01-17T17:36:30.833Z,94411.38
2023-01-17T17:38:59.638Z,94410.03
2023-01-17T17:41:31.487Z,94416.09
2023-01-17T17:44:02.241Z,94433.13
2023-01-17T17:46:31.330Z,94433.97
2023-01-17T17:49:00.184Z,94435.63
2023-01-17T17:51:30.620Z,94442.72
2023-01-17T17:54:01.640Z,94439.13
2023-01-17T17:56:33.649Z,94448.97
2023-01-17T17:59:03.256Z,94443.31
2023-01-17T18:01:32.752Z,94454.09
2023-01-17T18:04:03.653Z,94454.91
2023-01-17T18:06:32.500Z,94457.69
2023-01-17T18:09:01.306Z,94457.00
2023-01-17T18:11:32.735Z,94460.09
2023-01-17T18:14:03.563Z,94462.84
2023-01-17T18:16:35.690Z,94466.78
2023-01-17T18:19:05.660Z,94457.91
2023-01-17T18:21:35.718Z,94456.56
2023-01-17T18:24:07.566Z,94447.28
2023-01-17T18:26:39.453Z,94450.09
2023-01-17T18:29:10.709Z,94457.03
2023-01-17T18:31:39.439Z,94446.44
2023-01-17T18:34:10.250Z,94456.53
2023-01-17T18:36:39.390Z,94452.31
2023-01-17T18:39:14.657Z,94443.53
2023-01-17T18:41:45.392Z,94440.41
2023-01-17T18:44:15.015Z,94442.97
2023-01-17T18:46:43.904Z,94440.06
2023-01-17T18:49:13.721Z,94442.34
2023-01-17T18:51:46.504Z,94437.59
2023-01-17T18:54:15.509Z,94435.31
2023-01-17T18:56:45.015Z,94437.94
2023-01-17T18:59:14.455Z,94440.06
2023-01-17T19:01:43.853Z,94435.00
2023-01-17T19:04:14.264Z,94432.53
2023-01-17T19:06:43.997Z,94440.13
2023-01-17T19:09:14.132Z,94441.84
2023-01-17T19:11:45.172Z,94437.88
2023-01-17T19:14:15.067Z,94438.00
2023-01-17T19:16:44.060Z,94432.88
2023-01-17T19:19:15.131Z,94442.69
2023-01-17T19:21:43.727Z,94442.13
2023-01-17T19:24:14.336Z,94444.81
2023-01-17T19:26:44.536Z,94447.09
2023-01-17T19:29:13.431Z,94440.50
2023-01-17T19:31:43.346Z,94442.69
2023-01-17T19:34:14.028Z,94439.69
2023-01-17T19:36:42.402Z,94442.50
2023-01-17T19:39:11.873Z,94441.16
2023-01-17T19:41:45.643Z,94446.66
2023-01-17T19:44:15.193Z,94452.47
2023-01-17T19:46:44.072Z,94453.63
2023-01-17T19:49:24.718Z,94459.97
2023-01-17T19:51:52.999Z,94476.94
2023-01-17T19:54:21.994Z,94464.94
2023-01-17T19:56:51.780Z,94474.88
2023-01-17T19:59:20.501Z,94480.63
2023-01-17T20:01:49.080Z,94476.22
2023-01-17T20:04:18.861Z,94481.91
2023-01-17T20:06:47.713Z,94486.66
2023-01-17T20:09:16.089Z,94490.22
2023-01-17T20:11:45.830Z,94480.31
2023-01-17T20:14:16.792Z,94492.84
2023-01-17T20:16:47.705Z,94484.50
2023-01-17T20:19:16.192Z,94488.63
2023-01-17T20:21:44.784Z,94493.56
2023-01-17T20:24:13.695Z,94500.22
2023-01-17T20:26:44.116Z,94499.03
2023-01-17T20:29:16.903Z,94487.38
2023-01-17T20:31:45.862Z,94498.22
2023-01-17T20:34:19.027Z,94486.59
2023-01-17T20:36:47.540Z,94491.50
2023-01-17T20:39:16.646Z,94495.44
2023-01-17T20:41:46.375Z,94492.66
2023-01-17T20:44:17.076Z,94501.69
2023-01-17T20:46:47.793Z,94485.06
2023-01-17T20:49:19.361Z,94500.06
2023-01-17T20:51:48.473Z,94494.41
2023-01-17T20:54:18.587Z,94503.41
2023-01-17T20:56:48.077Z,94491.00
2023-01-17T20:59:19.662Z,94494.84
2023-01-17T21:01:48.697Z,94489.09
2023-01-17T21:04:20.147Z,94475.50
2023-01-17T21:06:51.671Z,94483.41
2023-01-17T21:09:21.429Z,94478.53
2023-01-17T21:11:50.602Z,94475.00
2023-01-17T21:14:21.904Z,94480.13
2023-01-17T21:16:51.287Z,94478.47
2023-01-17T21:19:20.512Z,94472.09
2023-01-17T21:21:50.271Z,94470.47
2023-01-17T21:24:20.324Z,94479.59
2023-01-17T21:26:51.452Z,94481.94
2023-01-17T21:29:21.018Z,94486.19
2023-01-17T21:31:49.364Z,94487.75
2023-01-17T21:34:17.811Z,94485.06
2023-01-17T21:36:46.254Z,94475.16
2023-01-17T21:39:17.104Z,94478.75
2023-01-17T21:41:48.219Z,94476.13
2023-01-17T21:44:19.835Z,94472.28
2023-01-17T21:46:53.615Z,94471.38
2023-01-17T21:49:24.152Z,94473.47
2023-01-17T21:52:09.871Z,94466.72
2023-01-17T21:54:55.869Z,94475.41
2023-01-17T21:57:41.754Z,94471.44
2023-01-17T22:00:14.652Z,94463.28
2023-01-17T22:02:49.061Z,94462.19
2023-01-17T22:05:18.564Z,94461.56
2023-01-17T22:08:00.833Z,94453.94
2023-01-17T22:10:29.259Z,94457.00
2023-01-17T22:12:57.561Z,94453.25
2023-01-17T22:15:25.801Z,94441.59
2023-01-17T22:17:55.710Z,94431.34
2023-01-17T22:20:24.053Z,94439.91
2023-01-17T22:22:52.226Z,94435.13
2023-01-17T22:25:21.150Z,94436.53
2023-01-17T22:27:49.288Z,94428.56
2023-01-17T22:30:19.618Z,94425.59
2023-01-17T22:32:47.784Z,94430.72
2023-01-17T22:35:17.705Z,94425.88
2023-01-17T22:37:45.800Z,94434.00
2023-01-17T22:40:14.480Z,94421.38
2023-01-17T22:42:43.134Z,94418.38
2023-01-17T22:45:12.229Z,94420.53
2023-01-17T22:47:40.961Z,94420.06
2023-01-17T22:50:10.745Z,94415.97
2023-01-17T22:52:40.541Z,94421.97
2023-01-17T22:55:09.915Z,94421.75
2023-01-17T22:57:38.377Z,94417.69
2023-01-17T23:00:14.688Z,94420.69
2023-01-17T23:02:44.329Z,94420.91
2023-01-17T23:05:13.448Z,94421.19
2023-01-17T23:07:46.610Z,94411.94
2023-01-17T23:10:37.082Z,94409.38
2023-01-17T23:13:06.072Z,94405.88
2023-01-17T23:15:55.976Z,94402.34
2023-01-17T23:18:41.989Z,94401.88
2023-01-17T23:21:10.315Z,94402.41
2023-01-17T23:23:40.269Z,94391.69
2023-01-17T23:26:08.988Z,94385.72
2023-01-17T23:28:36.134Z,94392.16
2023-01-17T23:31:06.572Z,94381.72
2023-01-17T23:33:35.108Z,94382.28
2023-01-17T23:36:03.486Z,94384.59
2023-01-17T23:38:34.239Z,94378.41
2023-01-17T23:41:27.427Z,94371.47
2023-01-17T23:43:57.216Z,94372.97
2023-01-17T23:46:26.835Z,94365.78
2023-01-17T23:48:56.159Z,94366.72
2023-01-17T23:51:24.434Z,94354.03
2023-01-17T23:53:57.734Z,94359.25
2023-01-17T23:56:27.685Z,94366.88
2023-01-17T23:58:56.090Z,94370.22
